Time;durP1;ratioP1;P1;durP2;ratioP2;P2;SDS_P1;SDS_P2;PMS_P1;PMS_P2;Temp;Humidity;BMP_temperature;BMP_pressure;BME280_temperature;BME280_humidity;BME280_pressure;Samples;Min_cycle;Max_cycle;Signal;HPM_P1;HPM_P2
2023/11/16 00:00:21;;;;;;;5.15;2.33;;;6.40;99.90;;;;;;7559091;19;20006;-70
2023/11/16 00:02:53;;;;;;;6.50;2.10;;;6.30;99.90;;;;;;7558265;19;21040;-70
2023/11/16 00:05:26;;;;;;;8.98;2.90;;;6.30;99.90;;;;;;7569009;19;20011;-69
2023/11/16 00:07:59;;;;;;;5.93;2.63;;;6.20;99.90;;;;;;7567169;19;20052;-69
2023/11/16 00:10:34;;;;;;;;;;;6.20;99.90;;;;;;7509890;19;20397;-70
2023/11/16 00:13:06;;;;;;;3.97;1.88;;;6.20;99.90;;;;;;7551407;19;19929;-69
2023/11/16 00:15:39;;;;;;;7.40;2.13;;;6.10;99.90;;;;;;7545144;19;20024;-70
2023/11/16 00:18:11;;;;;;;3.08;2.20;;;6.20;99.90;;;;;;7552011;19;20563;-70
2023/11/16 00:20:43;;;;;;;6.82;2.53;;;6.20;99.90;;;;;;7576666;19;20010;-69
2023/11/16 00:23:16;;;;;;;4.47;1.98;;;6.20;99.90;;;;;;7561691;19;20090;-70
2023/11/16 00:25:48;;;;;;;4.10;2.13;;;6.10;99.90;;;;;;7554174;19;20052;-69
2023/11/16 00:28:20;;;;;;;5.07;3.30;;;6.00;99.90;;;;;;7570008;19;20088;-71
2023/11/16 00:30:53;;;;;;;9.40;6.60;;;5.90;99.90;;;;;;7537827;19;20255;-69
2023/11/16 00:33:26;;;;;;;8.77;5.22;;;6.00;99.90;;;;;;7556941;19;20011;-68
2023/11/16 00:36:01;;;;;;;6.55;3.67;;;5.90;99.90;;;;;;7567776;19;20022;-69
2023/11/16 00:38:35;;;;;;;7.38;3.30;;;5.90;99.90;;;;;;7563896;19;20021;-68
2023/11/16 00:41:15;;;;;;;6.53;3.25;;;5.80;99.90;;;;;;7556669;19;20029;-68
2023/11/16 00:43:48;;;;;;;6.05;2.92;;;5.70;99.90;;;;;;7578039;19;20452;-69
2023/11/16 00:46:21;;;;;;;10.45;3.22;;;5.70;99.90;;;;;;7558063;19;20015;-69
2023/11/16 00:48:54;;;;;;;5.28;3.03;;;5.60;99.90;;;;;;7559352;19;20023;-68
2023/11/16 00:51:27;;;;;;;5.43;3.00;;;5.60;99.90;;;;;;7544024;19;20019;-69
2023/11/16 00:54:01;;;;;;;5.32;3.08;;;5.60;99.90;;;;;;7543469;19;20025;-68
2023/11/16 00:56:35;;;;;;;7.40;2.33;;;5.60;99.90;;;;;;7579050;19;20015;-68
2023/11/16 00:59:10;;;;;;;7.47;3.00;;;5.60;99.90;;;;;;7558810;19;20022;-69
2023/11/16 01:01:43;;;;;;;7.63;3.05;;;5.40;99.90;;;;;;7546622;19;20018;-68
2023/11/16 01:04:19;;;;;;;8.00;2.90;;;5.40;99.90;;;;;;7563382;19;20014;-68
2023/11/16 01:06:53;;;;;;;5.57;2.42;;;5.40;99.90;;;;;;7571769;19;20022;-69
2023/11/16 01:09:25;;;;;;;4.93;2.40;;;5.40;99.90;;;;;;7560195;19;20101;-68
2023/11/16 01:11:57;;;;;;;6.25;2.65;;;5.40;99.90;;;;;;7558618;19;20090;-69
2023/11/16 01:14:30;;;;;;;6.35;2.00;;;5.50;99.90;;;;;;7561947;19;20025;-68
2023/11/16 01:17:07;;;;;;;6.20;2.00;;;5.60;99.90;;;;;;7539598;19;20026;-69
2023/11/16 01:19:45;;;;;;;6.85;1.98;;;5.70;99.90;;;;;;7543117;19;20085;-68
2023/11/16 01:22:21;;;;;;;8.05;1.80;;;5.70;99.90;;;;;;7532596;19;20024;-69
2023/11/16 01:24:54;;;;;;;6.07;1.92;;;5.70;99.90;;;;;;7552514;19;20534;-69
2023/11/16 01:27:29;;;;;;;4.22;1.77;;;5.60;99.90;;;;;;7525787;19;20404;-68
2023/11/16 01:30:03;;;;;;;6.40;2.10;;;5.60;99.90;;;;;;7551641;19;22306;-69
2023/11/16 01:32:35;;;;;;;6.88;1.77;;;5.60;99.90;;;;;;7531222;19;20022;-68
2023/11/16 01:35:08;;;;;;;4.33;1.97;;;5.70;99.90;;;;;;7561952;19;20019;-67
2023/11/16 01:37:42;;;;;;;6.87;2.07;;;5.70;99.90;;;;;;7568806;19;20020;-67
2023/11/16 01:40:15;;;;;;;14.60;5.05;;;5.60;99.90;;;;;;7539231;19;20082;-67
2023/11/16 01:42:50;;;;;;;12.17;6.33;;;5.70;99.90;;;;;;7560469;19;20007;-67
2023/11/16 01:45:28;;;;;;;9.85;4.57;;;5.60;99.90;;;;;;7555807;19;20350;-68
2023/11/16 01:48:06;;;;;;;8.90;2.85;;;5.60;99.90;;;;;;7529411;19;20014;-68
2023/11/16 01:50:39;;;;;;;6.43;3.15;;;5.60;99.90;;;;;;7535005;19;20629;-67
2023/11/16 01:53:13;;;;;;;6.47;3.37;;;5.50;99.90;;;;;;7539439;19;20058;-70
2023/11/16 01:55:46;;;;;;;;;;;5.60;99.90;;;;;;7572713;19;20025;-68
2023/11/16 01:58:18;;;;;;;6.85;2.25;;;5.50;99.90;;;;;;7562370;19;20037;-70
2023/11/16 02:00:51;;;;;;;6.55;2.67;;;5.50;99.90;;;;;;7530892;19;20023;-68
2023/11/16 02:03:24;;;;;;;4.13;2.22;;;5.40;99.90;;;;;;7530768;19;20571;-70
2023/11/16 02:05:56;;;;;;;6.72;2.50;;;5.40;99.90;;;;;;7510982;19;20010;-68
2023/11/16 02:08:29;;;;;;;9.00;2.60;;;5.30;99.90;;;;;;7522528;19;20500;-68
2023/11/16 02:11:02;;;;;;;6.53;2.70;;;5.20;99.90;;;;;;7536729;19;20021;-68
2023/11/16 02:13:35;;;;;;;;;;;5.20;99.90;;;;;;7566133;19;20026;-68
2023/11/16 02:16:08;;;;;;;4.55;1.83;;;5.20;99.90;;;;;;7514507;19;20375;-68
2023/11/16 02:18:41;;;;;;;8.10;2.40;;;5.30;99.90;;;;;;7540129;19;20045;-69
2023/11/16 02:21:13;;;;;;;7.20;2.30;;;5.30;99.90;;;;;;7555978;19;20046;-70
2023/11/16 02:23:48;;;;;;;4.05;2.17;;;5.20;99.90;;;;;;7555632;19;20017;-69
2023/11/16 02:26:20;;;;;;;7.32;2.03;;;5.10;99.90;;;;;;7539775;19;20022;-68
2023/11/16 02:28:52;;;;;;;5.10;2.42;;;5.00;99.90;;;;;;7562034;19;20081;-69
2023/11/16 02:31:25;;;;;;;6.70;2.58;;;4.90;99.90;;;;;;7535037;19;20018;-68
2023/11/16 02:34:09;;;;;;;5.45;2.38;;;4.80;99.90;;;;;;7551598;19;20018;-70
2023/11/16 02:36:42;;;;;;;6.25;2.72;;;4.90;99.90;;;;;;7568207;19;20610;-68
2023/11/16 02:39:15;;;;;;;6.85;2.50;;;4.90;99.90;;;;;;7540482;19;20013;-68
2023/11/16 02:41:49;;;;;;;;;;;4.90;99.90;;;;;;7569656;19;21702;-70
2023/11/16 02:44:21;;;;;;;8.38;2.42;;;4.80;99.90;;;;;;7564016;19;19923;-68
2023/11/16 02:46:55;;;;;;;9.30;2.60;;;4.80;99.90;;;;;;7543081;19;20033;-68
2023/11/16 02:49:28;;;;;;;3.83;2.45;;;4.70;99.90;;;;;;7550936;19;20025;-69
2023/11/16 02:52:01;;;;;;;7.93;2.58;;;4.70;99.90;;;;;;7568016;19;20021;-68
2023/11/16 02:54:33;;;;;;;7.20;2.53;;;4.70;99.90;;;;;;7551317;19;20026;-69
2023/11/16 02:57:09;;;;;;;5.43;1.92;;;4.60;99.90;;;;;;7555274;19;20015;-69
2023/11/16 02:59:42;;;;;;;7.28;2.05;;;4.60;99.90;;;;;;7561590;19;20870;-70
2023/11/16 03:02:15;;;;;;;5.57;2.70;;;4.60;99.90;;;;;;7538214;19;20977;-71
2023/11/16 03:04:47;;;;;;;;;;;4.70;99.90;;;;;;7557543;19;20018;-69
2023/11/16 03:07:20;;;;;;;5.25;2.10;;;4.70;99.90;;;;;;7572810;19;19969;-71
2023/11/16 03:10:05;;;;;;;7.50;2.33;;;4.70;99.90;;;;;;7552451;19;20039;-70
2023/11/16 03:12:37;;;;;;;;;;;4.70;99.90;;;;;;7562277;19;20044;-71
2023/11/16 03:15:10;;;;;;;4.22;2.10;;;4.50;99.90;;;;;;7509750;19;19914;-69
2023/11/16 03:17:43;;;;;;;6.15;2.00;;;4.40;99.90;;;;;;7549487;19;20025;-70
2023/11/16 03:20:16;;;;;;;7.38;2.55;;;4.40;99.90;;;;;;7559009;19;20018;-70
2023/11/16 03:22:49;;;;;;;4.95;2.13;;;4.50;99.90;;;;;;7565394;19;20037;-71
2023/11/16 03:25:21;;;;;;;3.85;1.88;;;4.50;99.90;;;;;;7505927;19;20614;-69
2023/11/16 03:27:55;;;;;;;6.50;1.95;;;4.50;99.90;;;;;;7547679;19;20019;-70
2023/11/16 03:30:27;;;;;;;3.75;1.77;;;4.60;99.90;;;;;;7555361;19;20018;-70
2023/11/16 03:32:59;;;;;;;8.18;3.00;;;4.60;99.90;;;;;;7542737;19;20021;-70
2023/11/16 03:35:32;;;;;;;4.30;1.88;;;4.70;99.90;;;;;;7561366;19;20142;-70
2023/11/16 03:38:05;;;;;;;6.63;2.20;;;4.60;99.90;;;;;;7571204;19;20758;-69
2023/11/16 03:40:37;;;;;;;4.80;1.98;;;4.50;99.90;;;;;;7542393;19;20022;-69
2023/11/16 03:43:10;;;;;;;5.97;2.33;;;4.50;99.90;;;;;;7536375;19;20025;-68
2023/11/16 03:45:43;;;;;;;5.63;1.95;;;4.60;99.90;;;;;;7542889;19;20010;-69
2023/11/16 03:48:16;;;;;;;8.10;2.63;;;4.60;99.90;;;;;;7534890;19;20148;-69
2023/11/16 03:50:49;;;;;;;5.10;1.88;;;4.60;99.90;;;;;;7569215;19;20105;-69
2023/11/16 03:53:21;;;;;;;5.80;2.33;;;4.60;99.90;;;;;;7565170;19;20019;-71
2023/11/16 03:55:54;;;;;;;6.70;1.63;;;4.60;99.90;;;;;;7553682;19;20388;-70
2023/11/16 03:58:26;;;;;;;5.57;1.88;;;4.50;99.90;;;;;;7548981;19;20022;-68
2023/11/16 04:00:58;;;;;;;8.10;2.20;;;4.50;99.90;;;;;;7548835;19;20017;-67
2023/11/16 04:03:32;;;;;;;7.63;1.70;;;4.40;99.90;;;;;;7531745;19;20105;-69
2023/11/16 04:06:06;;;;;;;4.47;1.75;;;4.40;99.90;;;;;;7568007;19;20516;-69
2023/11/16 04:08:39;;;;;;;6.88;2.17;;;4.40;99.90;;;;;;7534715;19;20956;-69
2023/11/16 04:11:11;;;;;;;5.30;1.90;;;4.30;99.90;;;;;;7532557;19;20036;-70
2023/11/16 04:13:46;;;;;;;7.20;2.55;;;4.30;99.90;;;;;;7512198;19;20053;-71
2023/11/16 04:16:24;;;;;;;4.32;2.40;;;4.20;99.90;;;;;;7529026;19;20060;-70
2023/11/16 04:18:56;;;;;;;11.38;2.75;;;4.10;99.90;;;;;;7537289;19;20848;-70
2023/11/16 04:21:29;;;;;;;6.60;1.90;;;4.10;99.90;;;;;;7533719;19;20034;-70
2023/11/16 04:24:05;;;;;;;5.18;2.15;;;4.10;99.90;;;;;;7527477;19;20022;-71
2023/11/16 04:26:38;;;;;;;4.82;2.10;;;4.10;99.90;;;;;;7525529;19;20018;-71
2023/11/16 04:29:11;;;;;;;6.97;2.08;;;4.20;99.90;;;;;;7508371;19;20014;-71
2023/11/16 04:31:44;;;;;;;9.23;1.90;;;4.20;99.90;;;;;;7509217;19;20014;-71
2023/11/16 04:34:17;;;;;;;5.68;2.08;;;4.30;99.90;;;;;;7553775;19;20627;-71
2023/11/16 04:36:53;;;;;;;7.68;2.08;;;4.20;99.90;;;;;;7540062;19;20021;-70
2023/11/16 04:39:25;;;;;;;3.95;1.77;;;4.30;99.90;;;;;;7532381;19;20054;-70
2023/11/16 04:41:57;;;;;;;6.85;2.15;;;4.30;99.90;;;;;;7533649;19;20021;-70
2023/11/16 04:44:34;;;;;;;7.22;2.10;;;4.40;99.90;;;;;;7527955;19;20018;-70
2023/11/16 04:47:07;;;;;;;3.63;1.73;;;4.40;99.90;;;;;;7536986;19;20456;-70
2023/11/16 04:49:41;;;;;;;;;;;4.20;99.90;;;;;;7521450;19;20014;-70
2023/11/16 04:52:13;;;;;;;9.90;2.30;;;4.20;99.90;;;;;;7529900;19;19922;-71
2023/11/16 04:54:46;;;;;;;6.60;2.15;;;4.20;99.90;;;;;;7533901;19;20494;-71
2023/11/16 04:57:19;;;;;;;6.88;2.00;;;4.20;99.90;;;;;;7534345;19;21020;-71
2023/11/16 04:59:53;;;;;;;6.28;2.13;;;4.20;99.90;;;;;;7514508;19;20753;-71
2023/11/16 05:02:26;;;;;;;5.32;2.00;;;4.10;99.90;;;;;;7530000;19;20011;-70
2023/11/16 05:04:58;;;;;;;5.13;1.85;;;4.10;99.90;;;;;;7512475;19;20020;-70
2023/11/16 05:07:32;;;;;;;3.65;1.63;;;4.00;99.90;;;;;;7515205;19;20010;-70
2023/11/16 05:10:07;;;;;;;3.53;2.33;;;4.00;99.90;;;;;;7531714;19;20019;-72
2023/11/16 05:12:40;;;;;;;7.10;2.05;;;4.00;99.90;;;;;;7519113;19;20262;-71
2023/11/16 05:15:16;;;;;;;3.55;2.10;;;4.10;99.90;;;;;;7517728;19;20045;-70
2023/11/16 05:17:48;;;;;;;5.05;1.70;;;4.10;99.90;;;;;;7532721;19;20010;-70
2023/11/16 05:20:21;;;;;;;6.53;2.03;;;4.10;99.90;;;;;;7535471;19;20097;-71
2023/11/16 05:22:53;;;;;;;6.15;2.38;;;4.10;99.90;;;;;;7511977;19;21913;-71
2023/11/16 05:25:26;;;;;;;2.78;1.92;;;4.10;99.90;;;;;;7514081;19;20694;-70
2023/11/16 05:27:59;;;;;;;7.60;2.28;;;4.10;99.90;;;;;;7506725;19;20014;-70
2023/11/16 05:30:34;;;;;;;4.88;2.03;;;4.10;99.90;;;;;;7512181;19;20369;-69
2023/11/16 05:33:09;;;;;;;3.80;2.00;;;4.00;99.90;;;;;;7520204;19;20019;-71
2023/11/16 05:35:43;;;;;;;8.77;2.72;;;4.00;99.90;;;;;;7518324;19;20022;-71
2023/11/16 05:38:17;;;;;;;4.85;3.15;;;4.00;99.90;;;;;;7510086;19;20022;-70
2023/11/16 05:40:51;;;;;;;7.13;2.90;;;3.90;99.90;;;;;;7516492;19;20372;-70
2023/11/16 05:43:24;;;;;;;15.60;3.35;;;3.90;99.90;;;;;;7535489;19;20011;-70
2023/11/16 05:45:57;;;;;;;4.80;3.13;;;3.80;99.90;;;;;;7521999;19;21054;-70
2023/11/16 05:48:30;;;;;;;12.32;3.60;;;3.70;99.90;;;;;;7530514;19;20015;-70
2023/11/16 05:51:02;;;;;;;7.85;3.10;;;3.70;99.90;;;;;;7503261;19;20024;-71
2023/11/16 05:53:36;;;;;;;4.75;2.65;;;3.70;99.90;;;;;;7533260;19;20850;-71
2023/11/16 05:56:08;;;;;;;4.45;2.30;;;3.70;99.90;;;;;;7553024;19;20757;-71
2023/11/16 05:58:42;;;;;;;4.23;2.50;;;3.70;99.90;;;;;;7548907;19;20014;-70
2023/11/16 06:01:14;;;;;;;5.90;2.35;;;3.60;99.90;;;;;;7537662;19;20267;-72
2023/11/16 06:03:47;;;;;;;10.73;3.53;;;3.70;99.90;;;;;;7550462;19;20056;-71
2023/11/16 06:06:20;;;;;;;7.47;2.73;;;3.70;99.90;;;;;;7551327;19;20321;-71
2023/11/16 06:08:53;;;;;;;6.22;1.92;;;3.80;99.90;;;;;;7547829;19;20010;-71
2023/11/16 06:11:25;;;;;;;6.75;2.15;;;3.80;99.90;;;;;;7520431;19;20011;-71
2023/11/16 06:13:59;;;;;;;6.45;2.35;;;3.80;99.90;;;;;;7545944;19;20014;-71
2023/11/16 06:16:32;;;;;;;5.43;1.83;;;3.70;99.90;;;;;;7535250;19;20335;-70
2023/11/16 06:19:05;;;;;;;6.47;3.05;;;3.60;99.90;;;;;;7532150;19;21032;-70
2023/11/16 06:21:40;;;;;;;9.82;2.58;;;3.50;99.90;;;;;;7546721;19;20074;-72
2023/11/16 06:24:13;;;;;;;7.78;2.28;;;3.40;99.90;;;;;;7546172;19;20014;-71
2023/11/16 06:26:46;;;;;;;10.10;2.87;;;3.40;99.90;;;;;;7518828;19;20015;-71
2023/11/16 06:29:21;;;;;;;7.60;2.80;;;3.40;99.90;;;;;;7527810;19;20305;-71
2023/11/16 06:31:53;;;;;;;4.43;2.28;;;3.40;99.90;;;;;;7552543;19;21105;-70
2023/11/16 06:34:26;;;;;;;5.03;2.57;;;3.40;99.90;;;;;;7553963;19;20018;-71
2023/11/16 06:36:59;;;;;;;6.68;2.85;;;3.30;99.90;;;;;;7530363;19;21561;-71
2023/11/16 06:39:32;;;;;;;3.00;2.20;;;3.40;99.90;;;;;;7536733;19;20002;-72
2023/11/16 06:42:06;;;;;;;5.30;2.83;;;3.40;99.90;;;;;;7561972;19;20015;-70
2023/11/16 06:44:39;;;;;;;6.00;2.88;;;3.50;99.90;;;;;;7568539;19;20018;-71
2023/11/16 06:47:12;;;;;;;12.15;4.93;;;3.40;99.90;;;;;;7558671;19;21270;-70
2023/11/16 06:49:47;;;;;;;8.03;4.13;;;3.50;99.90;;;;;;7557492;19;20610;-71
2023/11/16 06:52:20;;;;;;;13.18;4.07;;;3.80;99.90;;;;;;7557621;19;20336;-71
2023/11/16 06:54:55;;;;;;;15.68;4.10;;;4.00;99.90;;;;;;7552953;19;20022;-71
2023/11/16 06:57:28;;;;;;;4.45;2.90;;;4.10;99.90;;;;;;7541333;19;20014;-71
2023/11/16 07:00:02;;;;;;;5.07;2.47;;;4.30;99.90;;;;;;7538028;19;20408;-70
2023/11/16 07:02:35;;;;;;;5.80;2.42;;;4.30;99.90;;;;;;7510238;19;20012;-71
2023/11/16 07:05:08;;;;;;;4.32;2.40;;;4.20;99.90;;;;;;7539009;19;20014;-70
2023/11/16 07:07:40;;;;;;;6.68;2.72;;;4.30;99.90;;;;;;7538468;19;20018;-71
2023/11/16 07:10:12;;;;;;;4.25;2.47;;;4.30;99.90;;;;;;7530423;19;20115;-70
2023/11/16 07:12:46;;;;;;;8.40;2.42;;;4.30;99.90;;;;;;7526997;19;20025;-71
2023/11/16 07:15:21;;;;;;;6.93;3.25;;;4.20;99.90;;;;;;7529565;19;20143;-70
2023/11/16 07:17:54;;;;;;;6.10;3.00;;;4.20;99.90;;;;;;7540871;19;20541;-71
2023/11/16 07:20:27;;;;;;;9.67;3.73;;;4.30;99.90;;;;;;7547069;19;20078;-71
2023/11/16 07:22:59;;;;;;;9.30;3.40;;;4.30;99.90;;;;;;7549351;19;20018;-71
2023/11/16 07:25:32;;;;;;;9.07;2.85;;;4.30;99.90;;;;;;7554172;19;20015;-70
2023/11/16 07:28:05;;;;;;;;;;;4.40;99.90;;;;;;7556787;19;20025;-70
2023/11/16 07:30:38;;;;;;;8.30;3.05;;;4.50;99.90;;;;;;7524475;19;19925;-71
2023/11/16 07:33:12;;;;;;;5.47;2.47;;;4.50;99.90;;;;;;7554737;19;20514;-71
2023/11/16 07:35:47;;;;;;;5.00;2.70;;;4.60;99.90;;;;;;7543031;19;20026;-70
2023/11/16 07:38:20;;;;;;;7.15;2.78;;;4.70;99.90;;;;;;7536142;19;20022;-69
2023/11/16 07:40:53;;;;;;;4.70;2.90;;;4.80;99.90;;;;;;7541080;19;20014;-70
2023/11/16 07:43:26;;;;;;;5.97;2.60;;;4.90;99.90;;;;;;7536305;19;20022;-70
2023/11/16 07:45:58;;;;;;;4.82;2.20;;;5.10;99.90;;;;;;7525800;19;20010;-70
2023/11/16 07:48:31;;;;;;;6.15;2.30;;;5.10;99.90;;;;;;7536634;19;20889;-70
2023/11/16 07:51:04;;;;;;;6.80;3.10;;;5.20;99.90;;;;;;7529392;19;21015;-70
2023/11/16 07:53:36;;;;;;;6.25;3.00;;;5.30;99.90;;;;;;7545986;19;22146;-70
2023/11/16 07:56:10;;;;;;;8.00;2.47;;;5.40;99.90;;;;;;7544564;19;20018;-70
2023/11/16 07:58:49;;;;;;;6.13;2.50;;;5.40;99.90;;;;;;7514490;19;20018;-70
2023/11/16 08:01:28;;;;;;;4.63;2.78;;;5.50;99.90;;;;;;7524427;19;21028;-70
2023/11/16 08:04:00;;;;;;;4.82;2.35;;;5.60;99.90;;;;;;7537711;19;20026;-70
2023/11/16 08:06:35;;;;;;;8.10;2.85;;;5.70;99.90;;;;;;7548118;19;20018;-70
2023/11/16 08:09:09;;;;;;;8.02;2.63;;;5.80;99.90;;;;;;7552562;19;20026;-70
2023/11/16 08:11:43;;;;;;;5.07;2.30;;;5.90;99.90;;;;;;7550387;19;20019;-70
2023/11/16 08:14:15;;;;;;;6.18;2.72;;;6.00;99.90;;;;;;7556759;19;20022;-69
2023/11/16 08:16:49;;;;;;;6.60;2.33;;;6.10;99.90;;;;;;7543112;19;20365;-71
2023/11/16 08:19:22;;;;;;;7.07;3.03;;;6.20;99.90;;;;;;7524847;19;20102;-70
2023/11/16 08:21:56;;;;;;;6.20;2.58;;;6.20;99.90;;;;;;7542104;19;20022;-70
2023/11/16 08:24:30;;;;;;;7.38;2.05;;;6.30;99.90;;;;;;7541238;19;20400;-71
2023/11/16 08:27:03;;;;;;;3.55;2.05;;;6.40;99.90;;;;;;7543442;19;20015;-70
2023/11/16 08:29:35;;;;;;;7.97;2.22;;;6.30;99.90;;;;;;7535174;19;20049;-71
2023/11/16 08:32:08;;;;;;;6.97;1.95;;;6.40;99.90;;;;;;7539683;19;20017;-70
2023/11/16 08:34:41;;;;;;;2.58;1.52;;;6.50;99.90;;;;;;7545887;19;20021;-71
2023/11/16 08:37:14;;;;;;;6.55;2.13;;;6.50;99.90;;;;;;7534966;19;20011;-70
2023/11/16 08:39:46;;;;;;;3.72;1.67;;;6.60;99.90;;;;;;7537217;19;20048;-71
2023/11/16 08:42:23;;;;;;;4.28;1.77;;;6.60;99.90;;;;;;7548774;19;20021;-71
2023/11/16 08:44:56;;;;;;;7.05;2.22;;;6.70;99.90;;;;;;7545550;19;21636;-71
2023/11/16 08:47:29;;;;;;;3.63;2.10;;;6.70;99.90;;;;;;7544242;19;20019;-70
2023/11/16 08:50:03;;;;;;;3.07;1.93;;;6.80;99.90;;;;;;7546694;19;21061;-71
2023/11/16 08:52:35;;;;;;;6.05;2.00;;;6.80;99.90;;;;;;7548130;19;20018;-71
2023/11/16 08:55:10;;;;;;;3.85;1.63;;;7.00;99.90;;;;;;7550731;19;20029;-72
2023/11/16 08:57:43;;;;;;;3.78;1.80;;;7.00;99.90;;;;;;7554698;19;20015;-71
2023/11/16 09:03:25;;;;;;;7.05;2.10;;;7.20;99.90;;;;;;7553128;19;20014;-71
2023/11/16 09:05:58;;;;;;;5.60;1.60;;;7.30;99.90;;;;;;7543705;19;20011;-71
2023/11/16 09:08:33;;;;;;;3.23;1.30;;;7.30;99.90;;;;;;7547741;19;20016;-72
2023/11/16 09:11:07;;;;;;;3.03;1.40;;;7.30;99.90;;;;;;7539525;19;20275;-70
2023/11/16 09:13:41;;;;;;;6.82;1.83;;;7.40;99.90;;;;;;7557204;19;20014;-72
2023/11/16 09:16:14;;;;;;;3.20;1.52;;;7.40;99.90;;;;;;7541964;19;20025;-70
2023/11/16 09:18:47;;;;;;;3.05;1.45;;;7.50;99.90;;;;;;7552986;19;20953;-72
2023/11/16 09:21:25;;;;;;;2.97;1.73;;;7.60;99.90;;;;;;7545998;19;20064;-70
2023/11/16 09:23:58;;;;;;;4.95;2.10;;;7.60;99.90;;;;;;7547783;19;20346;-70
2023/11/16 09:26:31;;;;;;;6.53;1.75;;;7.60;99.90;;;;;;7558705;19;20026;-70
2023/11/16 09:29:07;;;;;;;;;;;7.70;99.90;;;;;;7535894;19;20090;-70
2023/11/16 09:31:41;;;;;;;3.15;1.08;;;7.70;99.90;;;;;;7558889;19;19923;-70
2023/11/16 09:34:16;;;;;;;5.32;1.48;;;7.80;99.90;;;;;;7540991;19;20063;-70
2023/11/16 09:36:50;;;;;;;3.30;1.58;;;7.90;99.90;;;;;;7542222;19;20011;-70
2023/11/16 09:39:22;;;;;;;5.85;1.83;;;8.00;99.90;;;;;;7547427;19;20018;-70
2023/11/16 09:42:00;;;;;;;3.20;1.83;;;8.10;99.90;;;;;;7535008;19;20102;-70
2023/11/16 09:44:39;;;;;;;4.10;2.00;;;8.10;99.90;;;;;;7521045;19;20021;-70
2023/11/16 09:47:25;;;;;;;3.88;1.60;;;8.20;99.90;;;;;;7528194;19;20811;-72
2023/11/16 09:50:00;;;;;;;3.60;1.67;;;8.30;99.90;;;;;;7552301;19;20048;-72
2023/11/16 09:52:38;;;;;;;7.80;1.98;;;8.30;99.90;;;;;;7546209;19;20006;-71
2023/11/16 09:55:12;;;;;;;6.35;1.58;;;8.40;99.90;;;;;;7542457;19;20022;-72
2023/11/16 09:57:45;;;;;;;10.15;1.98;;;8.50;99.90;;;;;;7562773;19;20010;-70
2023/11/16 10:00:20;;;;;;;5.30;1.40;;;8.50;99.90;;;;;;7534450;19;20044;-72
2023/11/16 10:02:55;;;;;;;4.15;1.35;;;8.60;99.90;;;;;;7544904;19;20101;-72
2023/11/16 10:05:36;;;;;;;3.75;1.35;;;8.70;99.90;;;;;;7543446;19;20019;-72
2023/11/16 10:08:09;;;;;;;3.33;1.42;;;8.80;99.90;;;;;;7528300;19;20536;-72
2023/11/16 10:11:04;;;;;;;5.78;1.25;;;8.90;99.90;;;;;;7532781;19;20990;-72
2023/11/16 10:13:37;;;;;;;4.32;1.38;;;8.90;99.90;;;;;;7544032;19;20023;-71
2023/11/16 10:16:09;;;;;;;4.63;1.50;;;8.90;99.90;;;;;;7532987;19;20989;-70
2023/11/16 10:18:42;;;;;;;4.40;1.47;;;9.00;99.90;;;;;;7537087;19;20018;-71
2023/11/16 10:21:15;;;;;;;4.32;1.23;;;9.10;99.90;;;;;;7535111;19;21401;-71
2023/11/16 10:23:51;;;;;;;2.53;0.98;;;9.20;99.90;;;;;;7541545;19;20025;-71
2023/11/16 10:26:24;;;;;;;5.07;1.10;;;9.20;99.90;;;;;;7544179;19;20018;-71
2023/11/16 10:28:56;;;;;;;6.80;1.10;;;9.20;99.90;;;;;;7490707;19;20037;-70
2023/11/16 10:31:35;;;;;;;7.78;1.75;;;9.30;99.90;;;;;;7478343;19;21613;-71
2023/11/16 10:34:10;;;;;;;3.75;1.20;;;9.30;99.90;;;;;;7484213;19;21048;-71
2023/11/16 10:36:44;;;;;;;7.25;1.48;;;9.40;99.90;;;;;;7484785;19;20018;-71
2023/11/16 10:39:18;;;;;;;5.35;1.95;;;9.40;99.90;;;;;;7477915;19;20013;-70
2023/11/16 10:41:51;;;;;;;6.50;1.08;;;9.50;99.90;;;;;;7491559;19;20018;-70
2023/11/16 10:44:24;;;;;;;6.90;1.50;;;9.60;99.90;;;;;;7535780;19;20014;-71
2023/11/16 10:46:58;;;;;;;5.97;1.70;;;9.60;99.90;;;;;;7549248;19;20018;-71
2023/11/16 10:49:31;;;;;;;6.80;1.63;;;9.70;99.90;;;;;;7543024;19;20007;-71
2023/11/16 10:52:05;;;;;;;2.20;1.33;;;9.60;99.90;;;;;;7549668;19;20014;-70
2023/11/16 10:54:43;;;;;;;2.38;1.23;;;9.70;99.90;;;;;;7546239;19;20018;-71
2023/11/16 10:57:16;;;;;;;4.15;1.25;;;9.70;99.90;;;;;;7538205;19;21504;-70
2023/11/16 10:59:50;;;;;;;5.80;1.38;;;9.60;99.90;;;;;;7552797;19;20014;-71
2023/11/16 11:02:23;;;;;;;;;;;9.70;99.90;;;;;;7533297;19;20025;-70
2023/11/16 11:04:55;;;;;;;3.83;1.20;;;9.60;99.90;;;;;;7548023;19;19925;-70
2023/11/16 11:07:31;;;;;;;2.90;1.40;;;9.60;99.90;;;;;;7543453;19;20023;-71
2023/11/16 11:10:08;;;;;;;4.85;1.40;;;9.70;99.90;;;;;;7546965;19;20025;-70
2023/11/16 11:12:47;;;;;;;6.30;1.58;;;9.60;99.90;;;;;;7548615;19;20019;-71
2023/11/16 11:15:35;;;;;;;3.42;1.20;;;9.50;99.90;;;;;;7550773;19;20018;-71
2023/11/16 11:18:08;;;;;;;5.57;1.42;;;9.60;99.90;;;;;;7549835;19;20025;-71
2023/11/16 11:20:43;;;;;;;2.28;1.30;;;9.60;99.90;;;;;;7486573;19;21026;-70
2023/11/16 11:23:18;;;;;;;3.00;1.10;;;9.70;99.90;;;;;;7504483;19;20014;-71
2023/11/16 11:26:04;;;;;;;4.15;1.20;;;9.70;99.90;;;;;;7518810;19;20025;-71
2023/11/16 11:28:38;;;;;;;5.78;1.95;;;9.70;99.90;;;;;;7483770;19;20019;-70
2023/11/16 11:31:11;;;;;;;6.00;1.20;;;9.70;99.90;;;;;;7444070;19;20146;-71
2023/11/16 11:33:45;;;;;;;3.05;0.98;;;9.80;99.90;;;;;;7457820;19;20019;-71
2023/11/16 11:36:20;;;;;;;4.10;1.17;;;9.90;99.90;;;;;;7499339;19;20026;-71
2023/11/16 11:38:54;;;;;;;4.25;1.30;;;9.80;99.90;;;;;;7494125;19;20529;-71
2023/11/16 11:41:26;;;;;;;3.17;1.23;;;9.90;99.90;;;;;;7511454;19;20408;-71
2023/11/16 11:44:06;;;;;;;5.10;1.00;;;9.90;99.90;;;;;;7545103;19;21791;-71
2023/11/16 11:46:40;;;;;;;6.10;1.20;;;9.90;99.90;;;;;;7517432;19;20302;-71
2023/11/16 11:49:15;;;;;;;3.47;0.95;;;9.80;99.90;;;;;;7533192;19;20893;-71
2023/11/16 11:51:50;;;;;;;4.18;1.30;;;9.80;99.90;;;;;;7498941;19;20638;-70
2023/11/16 11:54:36;;;;;;;8.98;1.45;;;9.80;99.90;;;;;;7532238;19;20109;-70
2023/11/16 11:57:12;;;;;;;3.10;0.98;;;9.80;99.90;;;;;;7533344;19;21100;-70
2023/11/16 11:59:45;;;;;;;4.78;1.00;;;9.70;99.90;;;;;;7515088;19;21362;-69
2023/11/16 12:02:19;;;;;;;3.33;1.00;;;9.70;99.90;;;;;;7511368;19;20027;-68
2023/11/16 12:04:52;;;;;;;;;;;9.70;99.90;;;;;;7526739;19;20025;-70
2023/11/16 12:08:01;;;;;;;3.83;1.15;;;9.70;99.90;;;;;;7535835;19;19926;-69
2023/11/16 12:10:54;;;;;;;4.47;1.52;;;9.70;99.90;;;;;;7516121;19;21615;-69
2023/11/16 12:13:45;;;;;;;3.83;0.95;;;9.60;99.90;;;;;;7508840;19;20006;-69
2023/11/16 12:16:28;;;;;;;3.80;1.08;;;9.60;99.90;;;;;;7545022;19;20156;-72
2023/11/16 12:19:00;;;;;;;6.93;1.55;;;9.60;99.90;;;;;;7554762;19;20040;-69
2023/11/16 12:21:33;;;;;;;6.07;1.13;;;9.60;99.90;;;;;;7553229;19;20010;-69
2023/11/16 12:24:08;;;;;;;5.53;1.60;;;9.60;99.90;;;;;;7537812;19;20037;-70
2023/11/16 12:26:41;;;;;;;3.38;1.13;;;9.60;99.90;;;;;;7486305;19;20621;-69
2023/11/16 12:29:15;;;;;;;5.47;1.10;;;9.50;99.90;;;;;;7498590;19;20060;-71
2023/11/16 12:31:48;;;;;;;8.55;1.42;;;9.50;99.90;;;;;;7522084;19;20128;-71
2023/11/16 12:34:22;;;;;;;5.43;1.10;;;9.40;99.90;;;;;;7538935;19;21878;-72
2023/11/16 12:36:58;;;;;;;4.32;1.15;;;9.40;99.90;;;;;;7507775;19;21518;-71
2023/11/16 12:39:31;;;;;;;2.42;1.20;;;9.30;99.90;;;;;;7525086;19;20018;-71
2023/11/16 12:42:08;;;;;;;4.95;1.55;;;9.30;99.90;;;;;;7525699;19;20014;-71
2023/11/16 12:44:42;;;;;;;3.05;1.42;;;9.30;99.90;;;;;;7521617;19;20010;-71
2023/11/16 12:47:14;;;;;;;2.88;1.10;;;9.30;99.90;;;;;;7505249;19;20014;-72
2023/11/16 12:49:54;;;;;;;3.67;1.63;;;9.30;99.90;;;;;;7498285;19;20114;-71
2023/11/16 12:52:27;;;;;;;2.92;1.50;;;9.30;99.90;;;;;;7531911;19;21587;-71
2023/11/16 12:55:00;;;;;;;7.63;1.60;;;9.30;99.90;;;;;;7500606;19;20074;-71
2023/11/16 12:57:32;;;;;;;6.15;1.95;;;9.20;99.90;;;;;;7502867;19;20014;-71
2023/11/16 13:00:10;;;;;;;4.80;1.85;;;9.20;99.90;;;;;;7518842;19;22238;-71
2023/11/16 13:02:44;;;;;;;3.42;1.50;;;9.20;99.90;;;;;;7530911;19;20362;-72
2023/11/16 13:05:18;;;;;;;5.38;1.60;;;9.30;99.90;;;;;;7539728;19;20022;-70
2023/11/16 13:07:51;;;;;;;;;;;9.30;99.90;;;;;;7529629;19;20020;-70
2023/11/16 13:10:26;;;;;;;5.35;1.20;;;9.40;99.90;;;;;;7516940;19;19923;-70
2023/11/16 13:12:59;;;;;;;4.55;1.40;;;9.50;99.90;;;;;;7537268;19;20429;-70
2023/11/16 13:15:32;;;;;;;9.15;1.85;;;9.40;99.90;;;;;;7513116;19;20022;-70
2023/11/16 13:18:04;;;;;;;7.40;1.90;;;9.40;99.90;;;;;;7516573;19;20058;-69
2023/11/16 13:20:37;;;;;;;7.30;1.80;;;9.30;99.90;;;;;;7518312;19;20021;-69
2023/11/16 13:23:09;;;;;;;7.13;2.00;;;9.30;99.90;;;;;;7529653;19;20102;-70
2023/11/16 13:25:44;;;;;;;7.47;2.00;;;9.30;99.90;;;;;;7540399;19;20465;-70
2023/11/16 13:28:17;;;;;;;2.83;1.90;;;9.40;99.90;;;;;;7536554;19;20052;-70
2023/11/16 13:30:50;;;;;;;3.53;1.80;;;9.30;99.90;;;;;;7528599;19;20683;-70
2023/11/16 13:33:22;;;;;;;7.15;2.53;;;9.20;99.90;;;;;;7536400;19;20006;-72
2023/11/16 13:35:55;;;;;;;2.97;2.08;;;9.20;99.90;;;;;;7531170;19;20018;-70
2023/11/16 13:38:28;;;;;;;3.63;2.42;;;9.10;99.90;;;;;;7531638;19;20018;-70